TimeCST,TemperatureF,Dew PointF,Humidity,Sea Level PressureIn,VisibilityMPH,Wind Direction,Wind SpeedMPH,Gust SpeedMPH,PrecipitationIn,Events,Conditions,WindDirDegrees,DateUTC
12:56 AM,68.0,66.0,93,29.96,10.0,South,5.8,-,N/A,,Clear,190,2012-11-26 06:56:00
1:56 AM,66.9,66.0,97,29.94,10.0,South,4.6,-,N/A,,Clear,180,2012-11-26 07:56:00
2:56 AM,68.0,66.9,96,29.94,10.0,South,5.8,-,N/A,,Clear,180,2012-11-26 08:56:00
3:56 AM,-9999,-9999,N/A,29.94,10.0,South,8.1,-,N/A,,Clear,190,2012-11-26 09:56:00
4:56 AM,-9999,-9999,N/A,29.95,10.0,South,9.2,-,N/A,,Clear,180,2012-11-26 10:56:00
5:56 AM,-9999,-9999,N/A,29.96,10.0,South,8.1,-,N/A,,Clear,180,2012-11-26 11:56:00
6:00 AM,68.0,64.4,88,29.96,10.0,South,6.9,-,N/A,,Partly Cloudy,180,2012-11-26 12:00:00
6:56 AM,68.5,64.8,88,29.97,10.0,South,5.8,-,N/A,,Mostly Cloudy,180,2012-11-26 12:56:00
7:56 AM,69.4,66.2,89,29.99,9.0,Calm,Calm,-,N/A,,Mostly Cloudy,0,2012-11-26 13:56:00
8:56 AM,72.0,70.0,93,30.01,10.0,SSE,4.6,-,N/A,,Mostly Cloudy,150,2012-11-26 14:56:00
9:56 AM,75.9,70.0,82,30.02,10.0,South,11.5,-,N/A,,Mostly Cloudy,180,2012-11-26 15:56:00
10:56 AM,78.1,70.0,76,30.01,10.0,South,15.0,-,N/A,,Mostly Cloudy,170,2012-11-26 16:56:00
11:56 AM,79.0,70.0,74,29.99,10.0,South,16.1,21.9,N/A,,Mostly Cloudy,170,2012-11-26 17:56:00
12:56 PM,80.1,70.0,71,29.97,10.0,South,13.8,23.0,N/A,,Mostly Cloudy,170,2012-11-26 18:56:00
1:56 PM,78.1,70.0,76,29.95,10.0,SSE,16.1,23.0,N/A,,Overcast,160,2012-11-26 19:56:00
2:56 PM,75.9,69.1,79,29.94,10.0,SSE,16.1,-,N/A,,Overcast,160,2012-11-26 20:56:00
3:56 PM,75.9,70.0,82,29.94,10.0,SSE,16.1,-,N/A,,Overcast,160,2012-11-26 21:56:00
4:56 PM,75.0,70.0,84,29.96,10.0,South,12.7,-,N/A,,Overcast,170,2012-11-26 22:56:00
5:56 PM,73.9,70.0,87,29.98,10.0,South,10.4,-,N/A,,Overcast,170,2012-11-26 23:56:00
6:56 PM,73.9,70.0,87,30.00,10.0,South,11.5,-,N/A,,Overcast,180,2012-11-27 00:56:00
7:56 PM,73.9,70.0,87,30.02,10.0,South,10.4,-,N/A,,Overcast,180,2012-11-27 01:56:00
8:56 PM,73.0,70.0,90,30.04,10.0,South,8.1,-,N/A,,Overcast,180,2012-11-27 02:56:00
9:56 PM,73.0,70.0,90,30.07,10.0,SW,6.9,-,N/A,,Overcast,230,2012-11-27 03:56:00
10:56 PM,73.0,68.0,84,30.08,10.0,SW,5.8,-,N/A,,Overcast,220,2012-11-27 04:56:00
11:56 PM,72.0,68.0,87,30.09,10.0,SW,8.1,-,N/A,,Mostly Cloudy,230,2012-11-27 05:56:00